Stewarts Point, Nevada
Current Conditions -  °F | °C
As of 9:58 PM on Thursday 27 Nov 2014 (Local Time) from KLSV Reporting Station
Clear Clear  
Wind Chill: 44°   Ceiling: Unl
Heat Index: 44°   Visibility: 10mi
Dew Point: 17°   Wind: 0mph
Humidity: 34%   Direction: NA
Pressure: 30.16"   Gusts: NA
Location:  36.5809°N, 114.605°W
Report Text: KLSV 280558Z AUTO 00000KT 10SM CLR 07/M08 A3016 RMK AO2 SLP210 T00651083 10166 20064 58001
Loading
Personal Weather Stations






























Interactive Weather Map New forecast layout! Learn more

10-Day Weather Forecast

Advertisements
Track Severe Weather on mobile